createdAt,value
2018-12-26T19:53:53.403Z,96495.83
2018-12-26T19:56:23.593Z,96499.90
2018-12-26T19:58:53.590Z,96487.58
2018-12-26T20:01:25.063Z,96487.12
2018-12-26T20:03:55.285Z,96481.98
2018-12-26T20:06:25.534Z,96481.10
2018-12-26T20:08:55.774Z,96481.72
2018-12-26T20:11:25.946Z,96478.83
2018-12-26T20:13:56.179Z,96484.41
2018-12-26T20:16:26.348Z,96473.75
2018-12-26T20:18:56.609Z,96479.30
2018-12-26T20:21:26.820Z,96483.70
2018-12-26T20:23:57.188Z,96478.84
2018-12-26T20:26:28.809Z,96475.98
2018-12-26T20:28:58.977Z,96476.23
2018-12-26T20:31:29.238Z,96481.65
2018-12-26T20:33:59.452Z,96481.73
2018-12-26T20:36:29.660Z,96476.16
2018-12-26T20:38:59.510Z,96476.08
2018-12-26T20:41:30.529Z,96470.34
2018-12-26T20:44:00.533Z,96482.97
2018-12-26T20:46:30.490Z,96482.27
2018-12-26T20:49:00.415Z,96481.10
2018-12-26T20:51:30.407Z,96477.78
2018-12-26T20:54:00.447Z,96477.23
2018-12-26T20:56:30.478Z,96473.92
2018-12-26T20:59:00.406Z,96475.09
2018-12-26T21:01:30.440Z,96481.81
2018-12-26T21:04:00.493Z,96472.13
2018-12-26T21:06:30.400Z,96466.18
2018-12-26T21:09:01.318Z,96468.34
2018-12-26T21:11:33.159Z,96467.18
2018-12-26T21:14:04.148Z,96466.16
2018-12-26T21:16:34.186Z,96466.43
2018-12-26T21:19:04.126Z,96466.61
2018-12-26T21:21:34.012Z,96469.24
2018-12-26T21:24:03.987Z,96468.34
2018-12-26T21:26:33.908Z,96465.63
2018-12-26T21:29:03.871Z,96466.61
2018-12-26T21:31:34.228Z,96462.79
2018-12-26T21:34:04.436Z,96457.40
2018-12-26T21:36:34.371Z,96454.95
2018-12-26T21:39:06.059Z,96454.04
2018-12-26T21:41:36.755Z,96461.39
2018-12-26T21:44:06.802Z,96467.84
2018-12-26T21:46:36.725Z,96464.77
2018-12-26T21:49:07.829Z,96457.84
2018-12-26T21:51:37.757Z,96453.31
2018-12-26T21:54:07.704Z,96457.59
2018-12-26T21:56:37.632Z,96453.97
2018-12-26T21:59:07.583Z,96452.52
2018-12-26T22:01:37.457Z,96456.70
2018-12-26T22:04:07.554Z,96456.14
2018-12-26T22:06:37.388Z,96457.76
2018-12-26T22:09:07.924Z,96460.70
2018-12-26T22:11:37.813Z,96464.21
2018-12-26T22:14:07.717Z,96461.55
2018-12-26T22:16:37.666Z,96469.91
2018-12-26T22:19:07.546Z,96466.05
2018-12-26T22:21:37.529Z,96469.35
2018-12-26T22:24:07.375Z,96468.71
2018-12-26T22:26:43.227Z,96464.59
2018-12-26T22:29:09.939Z,96455.48
2018-12-26T22:31:39.884Z,96455.02
2018-12-26T22:34:09.752Z,96453.06
2018-12-26T22:36:39.694Z,96455.21
2018-12-26T22:39:09.561Z,96445.16
2018-12-26T22:41:39.487Z,96449.27
2018-12-26T22:44:09.352Z,96445.41
2018-12-26T22:46:39.334Z,96442.42
2018-12-26T22:49:09.284Z,96440.61
2018-12-26T22:51:42.082Z,96441.06
2018-12-26T22:54:10.792Z,96441.54
2018-12-26T22:56:40.652Z,96434.73
2018-12-26T22:59:10.529Z,96433.11
2018-12-26T23:01:40.437Z,96433.28
2018-12-26T23:04:10.437Z,96428.37
2018-12-26T23:06:40.267Z,96421.24
2018-12-26T23:09:10.138Z,96428.08
2018-12-26T23:11:40.100Z,96417.08
2018-12-26T23:14:10.077Z,96422.11
2018-12-26T23:16:40.147Z,96407.77
2018-12-26T23:19:10.156Z,96412.97
2018-12-26T23:21:40.118Z,96408.48
2018-12-26T23:24:10.039Z,96401.86
2018-12-26T23:26:39.953Z,96404.63
2018-12-26T23:29:09.782Z,96395.84
2018-12-26T23:31:39.829Z,96402.41
2018-12-26T23:34:09.755Z,96392.52
2018-12-26T23:36:39.627Z,96390.35
2018-12-26T23:39:09.621Z,96389.02
2018-12-26T23:41:39.467Z,96386.33
2018-12-26T23:44:09.349Z,96379.23
2018-12-26T23:46:39.334Z,96375.55
2018-12-26T23:49:09.311Z,96378.80
2018-12-26T23:51:39.234Z,96368.81
2018-12-26T23:54:09.144Z,96375.64
2018-12-26T23:56:38.998Z,96365.31
2018-12-26T23:59:08.862Z,96367.92
